Time;durP1;ratioP1;P1;durP2;ratioP2;P2;SDS_P1;SDS_P2;PMS_P1;PMS_P2;Temp;Humidity;BMP_temperature;BMP_pressure;BME280_temperature;BME280_humidity;BME280_pressure;Samples;Min_cycle;Max_cycle;Signal;HPM_P1;HPM_P2
2023/10/04 00:00:20;;;;;;;5.53;1.50;;;13.20;1.00;;;;;;6271662;22;20360;-67
2023/10/04 00:02:51;;;;;;;4.78;1.20;;;13.20;1.00;;;;;;6270711;22;20410;-67
2023/10/04 00:05:17;;;;;;;5.10;0.80;;;13.20;1.00;;;;;;6271863;22;20904;-67
2023/10/04 00:07:45;;;;;;;5.03;1.25;;;13.20;1.00;;;;;;6271321;22;20387;-67
2023/10/04 00:10:11;;;;;;;4.80;1.00;;;13.20;1.00;;;;;;6271145;22;20383;-66
2023/10/04 00:12:37;;;;;;;5.00;1.00;;;13.20;1.00;;;;;;6273824;22;20453;-66
2023/10/04 00:15:09;;;;;;;4.50;1.10;;;13.10;1.00;;;;;;6273949;22;20407;-66
2023/10/04 00:17:35;;;;;;;4.97;0.95;;;13.10;1.00;;;;;;6271267;22;20356;-66
2023/10/04 00:20:03;;;;;;;7.53;1.40;;;13.10;1.00;;;;;;6271601;22;20360;-66
2023/10/04 00:22:29;;;;;;;6.20;1.42;;;13.00;1.00;;;;;;6271262;22;20352;-67
2023/10/04 00:24:54;;;;;;;6.37;1.20;;;12.90;1.00;;;;;;6270745;22;20473;-67
2023/10/04 00:27:20;;;;;;;5.30;1.30;;;12.90;1.00;;;;;;6271408;22;20380;-66
2023/10/04 00:29:45;;;;;;;4.90;1.30;;;12.90;1.00;;;;;;6271484;22;20788;-67
2023/10/04 00:32:13;;;;;;;4.72;0.90;;;12.90;1.00;;;;;;6270838;22;20427;-67
2023/10/04 00:34:39;;;;;;;5.60;1.25;;;12.80;1.00;;;;;;6271022;22;20368;-67
2023/10/04 00:37:07;;;;;;;5.18;1.35;;;12.80;1.00;;;;;;6271191;22;20380;-67
2023/10/04 00:39:34;;;;;;;5.47;1.45;;;12.80;1.00;;;;;;6270874;22;20359;-67
2023/10/04 00:42:00;;;;;;;6.27;1.43;;;12.80;1.00;;;;;;6270754;22;20724;-67
2023/10/04 00:44:26;;;;;;;5.45;1.25;;;12.70;1.00;;;;;;6271334;22;20433;-67
2023/10/04 00:46:52;;;;;;;5.18;1.08;;;12.70;1.00;;;;;;6270815;22;20489;-67
2023/10/04 00:49:18;;;;;;;4.72;1.20;;;12.70;1.00;;;;;;6271152;22;20698;-67
2023/10/04 00:51:43;;;;;;;6.65;1.30;;;12.80;1.00;;;;;;6243850;22;20486;-67
2023/10/04 00:54:10;;;;;;;6.28;1.50;;;12.80;1.00;;;;;;6270705;22;20393;-67
2023/10/04 00:56:36;;;;;;;5.77;1.30;;;12.70;1.00;;;;;;6270516;22;20474;-67
2023/10/04 00:59:03;;;;;;;5.68;1.10;;;12.70;1.00;;;;;;6270966;22;20387;-67
2023/10/04 01:01:33;;;;;;;5.00;1.40;;;12.70;1.00;;;;;;6271756;22;20407;-67
2023/10/04 01:04:00;;;;;;;5.30;1.08;;;12.70;1.00;;;;;;6272120;22;20390;-67
2023/10/04 01:06:26;;;;;;;6.28;1.30;;;12.70;1.00;;;;;;6272062;22;20380;-67
2023/10/04 01:08:55;;;;;;;5.18;1.42;;;12.60;1.00;;;;;;6271745;22;21245;-67
2023/10/04 01:11:22;;;;;;;5.20;1.20;;;12.60;1.00;;;;;;6272767;22;20364;-67
2023/10/04 01:13:47;;;;;;;4.60;1.20;;;12.50;1.00;;;;;;6272953;22;20376;-67
2023/10/04 01:16:15;;;;;;;5.50;1.10;;;12.50;1.00;;;;;;6271946;22;20364;-67
2023/10/04 01:18:42;;;;;;;4.00;0.80;;;12.50;1.00;;;;;;6272563;22;20348;-67
2023/10/04 01:21:09;;;;;;;4.50;1.17;;;12.60;1.00;;;;;;6271553;22;20406;-67
2023/10/04 01:23:34;;;;;;;7.40;1.00;;;12.50;1.00;;;;;;6272439;22;20395;-67
2023/10/04 01:26:00;;;;;;;4.80;1.00;;;12.50;1.00;;;;;;6272355;22;20352;-66
2023/10/04 01:28:30;;;;;;;4.43;1.00;;;12.50;1.00;;;;;;6272890;22;20360;-66
2023/10/04 01:30:59;;;;;;;5.50;1.00;;;12.50;1.00;;;;;;6276606;22;20367;-66
2023/10/04 01:33:25;;;;;;;5.03;1.25;;;12.50;1.00;;;;;;6277013;22;20368;-66
2023/10/04 01:35:55;;;;;;;5.30;1.20;;;12.50;1.00;;;;;;6277150;22;20375;-66
2023/10/04 01:38:25;;;;;;;4.97;1.00;;;12.40;1.00;;;;;;6276460;22;20364;-67
2023/10/04 01:40:56;;;;;;;6.60;1.50;;;12.30;1.00;;;;;;6272722;22;20364;-67
2023/10/04 01:43:24;;;;;;;5.40;1.20;;;12.30;1.00;;;;;;6272118;22;20657;-67
2023/10/04 01:45:50;;;;;;;5.20;1.20;;;12.30;1.00;;;;;;6272245;22;20361;-67
2023/10/04 01:48:17;;;;;;;4.70;1.10;;;12.20;1.00;;;;;;6272988;22;20768;-67
2023/10/04 01:50:43;;;;;;;5.47;1.25;;;12.20;1.00;;;;;;6272845;22;20368;-67
2023/10/04 01:53:12;;;;;;;5.45;1.30;;;12.20;1.00;;;;;;6273490;22;20692;-67
2023/10/04 01:55:37;;;;;;;4.70;1.20;;;12.20;1.00;;;;;;6272165;22;20361;-67
2023/10/04 01:58:04;;;;;;;5.60;1.30;;;12.20;1.00;;;;;;6271809;22;20455;-67
2023/10/04 02:00:29;;;;;;;6.00;1.52;;;12.20;1.00;;;;;;6271883;22;20360;-67
2023/10/04 02:02:55;;;;;;;6.43;1.50;;;12.10;1.00;;;;;;6272449;22;20838;-67
2023/10/04 02:05:28;;;;;;;5.27;1.50;;;12.20;1.00;;;;;;6277970;22;20374;-66
2023/10/04 02:07:54;;;;;;;6.40;1.10;;;12.20;1.00;;;;;;6284220;22;20380;-66
2023/10/04 02:10:20;;;;;;;5.28;1.60;;;12.30;1.00;;;;;;6283083;22;20688;-66
2023/10/04 02:12:46;;;;;;;6.22;1.02;;;12.20;1.00;;;;;;6275176;22;20414;-66
2023/10/04 02:15:15;;;;;;;4.77;1.10;;;12.10;1.00;;;;;;6275579;22;20404;-67
2023/10/04 02:17:44;;;;;;;6.00;1.30;;;12.10;1.00;;;;;;6274793;22;20443;-67
2023/10/04 02:20:13;;;;;;;5.68;1.23;;;12.20;1.00;;;;;;6275411;22;20676;-67
2023/10/04 02:22:39;;;;;;;6.60;1.20;;;12.10;1.00;;;;;;6275584;22;20353;-67
2023/10/04 02:25:11;;;;;;;6.25;1.42;;;12.00;1.00;;;;;;6277013;22;20374;-67
2023/10/04 02:27:37;;;;;;;4.72;0.90;;;12.00;1.00;;;;;;6276187;22;20384;-67
2023/10/04 02:30:13;;;;;;;6.22;1.85;;;12.00;1.00;;;;;;6274843;22;20502;-67
2023/10/04 02:32:41;;;;;;;4.00;0.80;;;12.00;1.00;;;;;;6274484;22;20480;-67
2023/10/04 02:35:07;;;;;;;7.05;1.50;;;11.90;1.00;;;;;;6273936;22;20364;-67
2023/10/04 02:37:32;;;;;;;4.82;0.90;;;11.90;1.00;;;;;;6246256;22;20361;-67
2023/10/04 02:40:01;;;;;;;7.25;1.15;;;11.90;1.00;;;;;;6271592;22;20383;-67
2023/10/04 02:42:27;;;;;;;5.37;1.57;;;11.80;7.20;;;;;;6273118;22;20379;-67
2023/10/04 02:44:52;;;;;;;6.15;1.23;;;11.80;1.00;;;;;;6273595;22;20445;-67
2023/10/04 02:47:18;;;;;;;5.13;1.05;;;11.80;1.00;;;;;;6273786;22;20490;-67
2023/10/04 02:49:43;;;;;;;4.80;1.10;;;11.80;1.00;;;;;;6273009;22;20502;-67
2023/10/04 02:52:13;;;;;;;4.80;1.20;;;11.80;1.90;;;;;;6272759;22;20435;-67
2023/10/04 02:54:40;;;;;;;5.70;1.40;;;11.80;7.70;;;;;;6272495;22;20364;-66
2023/10/04 02:57:07;;;;;;;5.35;1.35;;;11.80;1.00;;;;;;6272726;22;20363;-68
2023/10/04 02:59:32;;;;;;;4.80;1.10;;;11.70;13.00;;;;;;6271974;22;20360;-66
2023/10/04 03:01:58;;;;;;;4.67;1.00;;;11.80;6.50;;;;;;6272084;22;20418;-66
2023/10/04 03:04:24;;;;;;;5.32;1.35;;;11.80;1.00;;;;;;6272614;22;20360;-67
2023/10/04 03:06:51;;;;;;;6.50;1.20;;;11.70;1.00;;;;;;6272386;22;20423;-67
2023/10/04 03:09:17;;;;;;;4.50;0.90;;;11.70;1.00;;;;;;6272701;22;20443;-67
2023/10/04 03:11:43;;;;;;;4.80;1.80;;;11.70;1.00;;;;;;6271524;22;20399;-67
2023/10/04 03:14:11;;;;;;;5.10;1.20;;;11.70;1.00;;;;;;6272006;22;20388;-67
2023/10/04 03:16:40;;;;;;;4.40;1.00;;;11.70;3.50;;;;;;6271619;22;20367;-67
2023/10/04 03:19:06;;;;;;;5.68;1.30;;;11.60;2.00;;;;;;6271784;22;20357;-67
2023/10/04 03:21:33;;;;;;;4.80;1.48;;;11.60;8.40;;;;;;6271879;22;20410;-67
2023/10/04 03:23:59;;;;;;;5.10;1.70;;;11.60;4.60;;;;;;6270999;22;20403;-67
2023/10/04 03:26:25;;;;;;;4.50;1.23;;;11.50;18.60;;;;;;6271212;22;20384;-67
2023/10/04 03:28:50;;;;;;;4.60;1.33;;;11.50;13.90;;;;;;6271943;22;20414;-67
2023/10/04 03:31:20;;;;;;;5.73;1.17;;;11.50;12.30;;;;;;6271909;22;20368;-67
2023/10/04 03:33:46;;;;;;;6.00;1.10;;;11.40;22.50;;;;;;6271328;22;20371;-67
2023/10/04 03:36:16;;;;;;;6.40;1.30;;;11.50;9.60;;;;;;6272037;22;20364;-67
2023/10/04 03:38:42;;;;;;;4.80;0.90;;;11.40;22.50;;;;;;6271948;22;20371;-67
2023/10/04 03:41:07;;;;;;;8.00;1.60;;;11.40;22.50;;;;;;6270844;22;20372;-67
2023/10/04 03:43:36;;;;;;;5.23;1.20;;;11.40;30.10;;;;;;6271938;22;20401;-67
2023/10/04 03:46:16;;;;;;;4.60;1.20;;;11.30;29.70;;;;;;6271340;22;20367;-67
2023/10/04 03:48:45;;;;;;;7.80;1.25;;;11.30;28.40;;;;;;6272184;22;20485;-67
2023/10/04 03:51:11;;;;;;;4.95;1.10;;;11.40;44.50;;;;;;6272290;22;20457;-67
2023/10/04 03:53:37;;;;;;;7.43;1.60;;;11.30;70.00;;;;;;6271123;22;20800;-67
2023/10/04 03:56:04;;;;;;;6.90;1.30;;;11.40;59.20;;;;;;6270374;22;20735;-67
2023/10/04 03:58:31;;;;;;;6.90;1.53;;;11.50;64.10;;;;;;6271257;22;20352;-67
2023/10/04 04:00:57;;;;;;;4.10;1.00;;;11.60;49.40;;;;;;6271735;22;20388;-67
2023/10/04 04:03:24;;;;;;;4.90;1.20;;;11.70;28.80;;;;;;6271530;22;20371;-67
2023/10/04 04:05:53;;;;;;;4.30;0.90;;;11.70;37.90;;;;;;6271905;22;20482;-67
2023/10/04 04:08:19;;;;;;;5.15;1.17;;;11.70;26.50;;;;;;6272079;22;20453;-66
2023/10/04 04:10:46;;;;;;;4.40;1.20;;;11.60;32.20;;;;;;6271250;22;20356;-67
2023/10/04 04:13:12;;;;;;;4.30;0.93;;;11.50;43.30;;;;;;6271074;22;20739;-67
2023/10/04 04:15:39;;;;;;;4.57;1.30;;;11.50;56.60;;;;;;6272627;22;20369;-67
2023/10/04 04:18:06;;;;;;;8.40;1.30;;;11.50;57.80;;;;;;6272745;22;20448;-67
2023/10/04 04:20:35;;;;;;;4.50;1.20;;;11.50;51.40;;;;;;6272734;22;20361;-67
2023/10/04 04:23:03;;;;;;;5.10;1.10;;;11.50;41.10;;;;;;6272992;22;20388;-67
2023/10/04 04:25:29;;;;;;;7.30;1.20;;;11.60;24.20;;;;;;6271291;22;20372;-67
2023/10/04 04:27:56;;;;;;;6.50;1.50;;;11.50;27.10;;;;;;6270444;22;20476;-67
2023/10/04 04:30:28;;;;;;;7.78;1.83;;;11.50;11.70;;;;;;6270970;22;20349;-67
2023/10/04 04:32:56;;;;;;;5.88;1.75;;;11.50;21.30;;;;;;6270603;22;20352;-68
2023/10/04 04:37:57;;;;;;;6.68;1.48;;;11.40;40.30;;;;;;6278098;22;20812;-67
2023/10/04 04:40:30;;;;;;;6.80;1.93;;;11.40;54.50;;;;;;6271044;22;20474;-67
2023/10/04 04:43:17;;;;;;;5.60;1.27;;;11.40;55.30;;;;;;6272381;22;20657;-67
2023/10/04 04:45:48;;;;;;;6.90;1.63;;;11.40;39.50;;;;;;6272669;22;20352;-67
2023/10/04 04:48:15;;;;;;;5.57;1.20;;;11.50;40.80;;;;;;6272290;22;20863;-67
2023/10/04 04:50:41;;;;;;;4.80;1.30;;;11.40;40.20;;;;;;6272587;22;20775;-67
2023/10/04 04:53:18;;;;;;;5.55;1.40;;;11.50;40.30;;;;;;6272017;22;20364;-67
2023/10/04 04:55:43;;;;;;;4.78;1.42;;;11.50;15.90;;;;;;6271858;22;20432;-68
2023/10/04 04:58:09;;;;;;;5.10;1.00;;;11.50;15.80;;;;;;6272379;22;20374;-67
2023/10/04 05:00:35;;;;;;;5.60;1.53;;;11.50;14.10;;;;;;6271943;22;20383;-67
2023/10/04 05:03:03;;;;;;;5.45;1.30;;;11.50;12.40;;;;;;6272471;22;20851;-67
2023/10/04 05:05:29;;;;;;;5.20;1.40;;;11.60;1.00;;;;;;6271503;22;20352;-67
2023/10/04 05:07:55;;;;;;;5.30;1.40;;;11.60;1.00;;;;;;6271567;22;20414;-67
2023/10/04 05:10:25;;;;;;;5.50;1.50;;;11.60;1.00;;;;;;6271331;22;20356;-67
2023/10/04 05:12:55;;;;;;;4.95;1.20;;;11.50;1.00;;;;;;6271462;22;20352;-67
2023/10/04 05:15:22;;;;;;;5.60;1.20;;;11.50;1.00;;;;;;6273731;22;20355;-67
2023/10/04 05:17:50;;;;;;;5.10;1.50;;;11.50;1.00;;;;;;6272812;22;20360;-67
2023/10/04 05:20:21;;;;;;;5.72;1.45;;;11.40;1.00;;;;;;6272153;22;20804;-67
2023/10/04 05:22:50;;;;;;;6.10;1.40;;;11.30;1.00;;;;;;6271948;22;20724;-67
2023/10/04 05:25:16;;;;;;;5.43;1.30;;;11.30;1.00;;;;;;6272102;22;20372;-68
2023/10/04 05:27:43;;;;;;;6.45;1.55;;;11.30;1.00;;;;;;6271663;22;20386;-67
2023/10/04 05:30:15;;;;;;;4.80;1.30;;;11.40;1.00;;;;;;6271734;22;20894;-67
2023/10/04 05:32:42;;;;;;;5.10;1.50;;;11.40;1.00;;;;;;6271471;22;20364;-67
2023/10/04 05:35:12;;;;;;;7.30;1.90;;;11.30;1.00;;;;;;6269758;22;20372;-68
2023/10/04 05:37:40;;;;;;;4.88;1.20;;;11.30;1.00;;;;;;6270262;22;20376;-67
2023/10/04 05:40:10;;;;;;;5.22;1.80;;;11.30;1.00;;;;;;6271354;22;20831;-68
2023/10/04 05:42:35;;;;;;;6.38;2.00;;;11.30;1.00;;;;;;6271457;22;20382;-68
2023/10/04 05:45:01;;;;;;;4.60;1.20;;;11.30;1.00;;;;;;6271132;22;20829;-68
2023/10/04 05:47:26;;;;;;;5.78;1.55;;;11.30;1.00;;;;;;6271323;22;20391;-68
2023/10/04 05:49:52;;;;;;;4.80;1.20;;;11.30;1.00;;;;;;6271698;22;20364;-68
2023/10/04 05:52:17;;;;;;;5.50;1.50;;;11.40;1.00;;;;;;6271924;22;20680;-68
2023/10/04 05:54:43;;;;;;;5.25;1.33;;;11.50;1.00;;;;;;6271032;22;20671;-67
2023/10/04 05:57:08;;;;;;;5.70;1.80;;;11.60;1.00;;;;;;6271603;22;20435;-68
2023/10/04 05:59:34;;;;;;;6.63;1.50;;;11.90;1.00;;;;;;6272091;22;20356;-68
2023/10/04 06:02:01;;;;;;;5.60;1.27;;;12.40;1.00;;;;;;6271354;22;20360;-68
2023/10/04 06:04:28;;;;;;;7.37;1.30;;;13.00;1.00;;;;;;6270682;22;20371;-68
2023/10/04 06:06:54;;;;;;;8.25;1.90;;;13.70;99.90;;;;;;6269613;22;20839;-68
2023/10/04 06:09:28;;;;;;;6.32;1.48;;;14.20;99.30;;;;;;6270066;22;20409;-68
2023/10/04 06:11:54;;;;;;;5.20;1.30;;;14.40;1.00;;;;;;6270853;22;20499;-68
2023/10/04 06:14:19;;;;;;;6.78;1.50;;;14.40;99.90;;;;;;6271482;22;20360;-68
2023/10/04 06:16:44;;;;;;;9.65;1.90;;;14.60;1.00;;;;;;6271542;22;20693;-68
2023/10/04 06:19:10;;;;;;;5.90;1.40;;;15.10;1.00;;;;;;6271646;22;21076;-68
2023/10/04 06:21:36;;;;;;;5.60;1.40;;;15.80;73.80;;;;;;6271481;22;20669;-68
2023/10/04 06:24:01;;;;;;;6.47;1.50;;;16.20;99.90;;;;;;6271187;22;20356;-69
2023/10/04 06:26:27;;;;;;;7.25;1.50;;;16.60;1.00;;;;;;6270827;22;20390;-68
2023/10/04 06:28:55;;;;;;;8.73;2.00;;;17.10;99.90;;;;;;6269120;22;20394;-68
2023/10/04 06:31:21;;;;;;;5.20;1.10;;;17.60;97.10;;;;;;6241306;22;20365;-68
2023/10/04 06:33:50;;;;;;;5.70;1.30;;;18.10;1.00;;;;;;6271752;22;20672;-68
2023/10/04 06:36:15;;;;;;;6.65;1.48;;;18.40;1.00;;;;;;6270843;22;20751;-68
2023/10/04 06:38:41;;;;;;;6.20;1.50;;;18.90;1.00;;;;;;6270703;22;20378;-69
2023/10/04 06:41:07;;;;;;;6.57;1.35;;;18.90;1.00;;;;;;6271053;22;20454;-68
2023/10/04 06:43:32;;;;;;;5.47;1.20;;;18.80;1.00;;;;;;6271082;22;20356;-68
2023/10/04 06:45:58;;;;;;;6.80;1.63;;;18.90;1.00;;;;;;6270787;22;20357;-68
2023/10/04 06:48:23;;;;;;;5.60;1.70;;;20.00;1.00;;;;;;6270858;22;20376;-68
2023/10/04 06:50:49;;;;;;;5.50;1.30;;;20.10;1.00;;;;;;6271399;22;20688;-68
2023/10/04 06:53:15;;;;;;;6.43;1.70;;;20.60;1.00;;;;;;6270890;22;20433;-68
2023/10/04 06:55:42;;;;;;;7.22;1.40;;;21.00;1.00;;;;;;6271007;22;20796;-69
2023/10/04 06:58:10;;;;;;;5.80;1.58;;;21.20;1.00;;;;;;6270516;22;20753;-69
2023/10/04 07:00:37;;;;;;;5.70;1.20;;;21.30;99.90;;;;;;6271112;22;20450;-68
2023/10/04 07:03:03;;;;;;;7.00;1.60;;;21.00;99.90;;;;;;6270282;22;20360;-68
2023/10/04 07:05:35;;;;;;;5.82;1.40;;;20.70;99.90;;;;;;6271198;22;20368;-69
2023/10/04 07:08:03;;;;;;;6.50;1.60;;;20.40;99.90;;;;;;6270846;22;20856;-68
2023/10/04 07:10:29;;;;;;;5.10;1.00;;;19.60;99.90;;;;;;6270834;22;20406;-68
2023/10/04 07:12:57;;;;;;;7.50;1.10;;;19.20;1.00;;;;;;6271568;22;20403;-68
2023/10/04 07:15:28;;;;;;;5.50;1.10;;;19.90;1.00;;;;;;6270624;22;20368;-68
2023/10/04 07:17:54;;;;;;;6.57;1.20;;;20.50;1.00;;;;;;6269559;22;20430;-68
2023/10/04 07:20:19;;;;;;;6.10;1.00;;;21.30;1.00;;;;;;6271086;22;20439;-68
2023/10/04 07:22:47;;;;;;;5.10;1.00;;;21.00;99.90;;;;;;6270863;22;20848;-68
2023/10/04 07:25:14;;;;;;;5.70;1.13;;;21.70;99.90;;;;;;6271425;22;20418;-69
2023/10/04 07:27:45;;;;;;;6.72;1.00;;;22.50;99.90;;;;;;6272365;22;20410;-69
2023/10/04 07:30:12;;;;;;;5.90;1.25;;;22.80;99.90;;;;;;6271783;22;21038;-69
2023/10/04 07:32:42;;;;;;;7.10;1.20;;;23.30;99.90;;;;;;6271312;22;20356;-69
2023/10/04 07:35:24;;;;;;;7.93;1.10;;;;;;;;;;6271662;22;20363;-69
2023/10/04 07:37:50;;;;;;;5.67;1.10;;;;;;;;;;6271584;22;20341;-69
2023/10/04 07:40:17;;;;;;;4.97;1.05;;;;;;;;;;6272159;22;20399;-68
2023/10/04 07:42:45;;;;;;;6.00;1.10;;;;;;;;;;6271859;22;20361;-68
2023/10/04 07:45:12;;;;;;;7.00;1.27;;;;;;;;;;6271833;22;21194;-68
2023/10/04 07:47:41;;;;;;;5.22;0.90;;;25.30;99.90;;;;;;6271260;22;20446;-68
2023/10/04 07:50:11;;;;;;;6.30;1.00;;;25.20;99.90;;;;;;6271158;22;20447;-68
2023/10/04 07:52:37;;;;;;;5.70;1.00;;;24.80;99.90;;;;;;6271754;22;20688;-68
2023/10/04 07:55:05;;;;;;;6.20;1.10;;;24.90;99.90;;;;;;6270506;22;20365;-70
2023/10/04 07:57:32;;;;;;;6.10;1.10;;;25.00;99.90;;;;;;6269984;22;20364;-67
2023/10/04 07:59:57;;;;;;;5.80;1.40;;;25.00;99.90;;;;;;6270970;22;20373;-68
2023/10/04 08:02:23;;;;;;;6.40;1.00;;;25.00;99.90;;;;;;6269370;22;20727;-67
2023/10/04 08:04:48;;;;;;;5.30;0.80;;;25.40;99.90;;;;;;6269479;22;20447;-69
2023/10/04 08:07:15;;;;;;;7.77;1.10;;;25.40;99.90;;;;;;6270866;22;20392;-69
2023/10/04 08:09:41;;;;;;;4.47;0.68;;;25.40;99.90;;;;;;6271138;22;20460;-69
2023/10/04 08:12:07;;;;;;;5.60;0.80;;;25.40;99.90;;;;;;6243573;22;20780;-69
2023/10/04 08:14:33;;;;;;;6.22;1.00;;;25.40;99.90;;;;;;6271676;22;20380;-68
2023/10/04 08:17:00;;;;;;;5.80;1.02;;;25.60;99.90;;;;;;6271087;22;20356;-69
2023/10/04 08:19:26;;;;;;;6.95;0.80;;;25.60;99.90;;;;;;6270530;22;20391;-69
2023/10/04 08:21:51;;;;;;;10.90;1.20;;;25.50;99.90;;;;;;6268980;22;20363;-69
2023/10/04 08:24:17;;;;;;;5.17;0.90;;;25.50;99.90;;;;;;6271555;22;20356;-69
2023/10/04 08:26:43;;;;;;;5.90;0.90;;;25.50;99.90;;;;;;6270649;22;20701;-69
2023/10/04 08:29:10;;;;;;;5.50;0.88;;;25.80;99.90;;;;;;6270493;22;20686;-68
2023/10/04 08:31:37;;;;;;;5.00;0.65;;;25.90;99.90;;;;;;6270840;22;20732;-68
2023/10/04 08:34:03;;;;;;;4.95;0.77;;;25.60;99.90;;;;;;6269872;22;20731;-69
2023/10/04 08:36:29;;;;;;;5.70;0.80;;;25.90;99.90;;;;;;6270951;22;20359;-69
2023/10/04 08:38:55;;;;;;;5.90;0.70;;;26.40;99.90;;;;;;6271593;22;20392;-69
2023/10/04 08:41:20;;;;;;;5.22;0.82;;;27.00;99.90;;;;;;6271760;22;20364;-69
2023/10/04 08:43:47;;;;;;;5.60;0.80;;;27.00;99.90;;;;;;6270461;22;20465;-67
2023/10/04 08:46:16;;;;;;;5.15;0.55;;;27.50;99.90;;;;;;6271281;22;20797;-67
2023/10/04 08:48:43;;;;;;;6.72;0.90;;;27.60;99.90;;;;;;6271066;22;20450;-70
2023/10/04 08:51:20;;;;;;;4.77;0.70;;;27.20;99.90;;;;;;6270992;22;20851;-70
2023/10/04 08:54:08;;;;;;;5.03;0.77;;;27.00;99.90;;;;;;6272017;22;20368;-70
2023/10/04 08:56:49;;;;;;;4.93;0.50;;;27.10;99.90;;;;;;6271126;22;20363;-69
2023/10/04 08:59:17;;;;;;;6.05;1.00;;;26.80;99.90;;;;;;6271733;22;20414;-69
2023/10/04 09:01:43;;;;;;;5.28;1.02;;;26.90;99.90;;;;;;6273270;22;20368;-69
2023/10/04 09:04:11;;;;;;;7.57;1.15;;;26.70;99.90;;;;;;6271883;22;20438;-69
2023/10/04 09:06:38;;;;;;;8.05;0.90;;;26.80;99.90;;;;;;6271747;22;20404;-69
2023/10/04 09:09:05;;;;;;;5.27;1.03;;;26.60;99.90;;;;;;6271557;22;20364;-70
2023/10/04 09:11:32;;;;;;;6.20;0.80;;;26.10;99.90;;;;;;6271208;22;20670;-69
2023/10/04 09:13:57;;;;;;;4.80;1.00;;;26.40;99.90;;;;;;6271057;22;20405;-69
2023/10/04 09:16:29;;;;;;;5.37;0.90;;;26.30;99.90;;;;;;6270518;22;20397;-69
2023/10/04 09:19:09;;;;;;;6.35;1.23;;;25.70;99.90;;;;;;6270956;22;20353;-69
2023/10/04 09:21:38;;;;;;;6.60;1.10;;;24.80;99.90;;;;;;6271997;22;20360;-69
2023/10/04 09:24:16;;;;;;;5.40;0.70;;;25.30;99.90;;;;;;6272579;22;20670;-69
2023/10/04 09:26:56;;;;;;;5.35;0.63;;;25.60;99.90;;;;;;6245180;22;20392;-69
2023/10/04 09:29:32;;;;;;;5.30;0.90;;;26.40;99.90;;;;;;6272331;22;20364;-69
2023/10/04 09:31:59;;;;;;;4.60;0.70;;;26.40;99.90;;;;;;6272901;22;20366;-69
2023/10/04 09:34:28;;;;;;;5.35;1.15;;;25.90;99.90;;;;;;6272084;22;20723;-69
2023/10/04 09:36:54;;;;;;;5.80;0.80;;;26.30;99.90;;;;;;6272044;22;20896;-69
2023/10/04 09:39:25;;;;;;;6.67;1.13;;;27.30;99.90;;;;;;6270998;22;20903;-69
2023/10/04 09:42:04;;;;;;;5.80;0.98;;;27.70;99.90;;;;;;6272957;22;20356;-70
2023/10/04 09:44:31;;;;;;;6.43;1.20;;;27.90;99.90;;;;;;6269503;22;20360;-69
2023/10/04 09:47:02;;;;;;;5.97;0.90;;;28.80;99.90;;;;;;6268499;22;20383;-69
2023/10/04 09:49:31;;;;;;;11.35;1.67;;;28.40;99.90;;;;;;6271556;22;20676;-69
2023/10/04 09:51:59;;;;;;;10.07;1.58;;;27.50;99.90;;;;;;6268268;22;20457;-69
2023/10/04 09:54:27;;;;;;;7.97;0.90;;;28.00;99.90;;;;;;6269668;22;20697;-68
2023/10/04 09:56:53;;;;;;;5.80;0.82;;;28.20;99.90;;;;;;6269018;22;21215;-67
2023/10/04 09:59:21;;;;;;;5.20;0.70;;;29.20;99.90;;;;;;6271760;22;20421;-67
2023/10/04 10:01:52;;;;;;;5.68;0.90;;;28.40;99.90;;;;;;6243141;22;20483;-69
2023/10/04 10:04:29;;;;;;;9.02;0.60;;;28.90;99.90;;;;;;6270755;22;20423;-69
2023/10/04 10:07:10;;;;;;;4.70;0.73;;;28.90;99.90;;;;;;6269687;22;20530;-69
2023/10/04 10:10:01;;;;;;;4.55;0.68;;;27.80;99.90;;;;;;6269554;22;20363;-69
2023/10/04 10:12:31;;;;;;;5.43;0.80;;;25.90;99.90;;;;;;6269132;22;20372;-69
2023/10/04 10:15:00;;;;;;;5.35;0.95;;;25.40;99.90;;;;;;6270302;22;20869;-69
2023/10/04 10:17:27;;;;;;;6.60;1.17;;;25.40;99.90;;;;;;6267520;22;21054;-69
2023/10/04 10:19:54;;;;;;;5.13;0.80;;;25.60;99.90;;;;;;6268902;22;20402;-70
2023/10/04 10:22:21;;;;;;;7.75;1.48;;;26.00;99.90;;;;;;6271961;22;20446;-70
2023/10/04 10:24:55;;;;;;;6.93;1.43;;;26.90;99.90;;;;;;6272410;22;20357;-70
2023/10/04 10:27:23;;;;;;;5.35;0.73;;;26.70;99.90;;;;;;6271726;22;20387;-70
2023/10/04 10:29:49;;;;;;;4.90;0.70;;;27.10;99.90;;;;;;6270466;22;20386;-70
2023/10/04 10:32:23;;;;;;;5.57;0.70;;;26.70;99.90;;;;;;6271620;22;20887;-68
2023/10/04 10:34:51;;;;;;;4.90;0.70;;;26.90;99.90;;;;;;6243317;22;20745;-68
2023/10/04 10:37:18;;;;;;;7.40;1.13;;;27.80;99.90;;;;;;6269123;22;20360;-68
2023/10/04 10:39:51;;;;;;;5.20;0.70;;;27.70;99.90;;;;;;6244631;22;20361;-70
2023/10/04 10:42:18;;;;;;;6.03;1.17;;;27.90;99.90;;;;;;6271238;22;20360;-69
2023/10/04 10:44:44;;;;;;;5.18;0.90;;;27.20;99.90;;;;;;6270359;22;20813;-69
2023/10/04 10:47:21;;;;;;;5.10;0.80;;;26.50;99.90;;;;;;6270164;22;20384;-69
2023/10/04 10:50:12;;;;;;;4.97;0.80;;;25.80;99.90;;;;;;6271026;22;20356;-69
2023/10/04 10:52:39;;;;;;;5.35;1.10;;;25.00;99.90;;;;;;6270970;22;20360;-69
2023/10/04 10:55:16;;;;;;;6.40;1.10;;;24.90;99.90;;;;;;6272099;22;20388;-69
2023/10/04 10:57:44;;;;;;;4.83;0.80;;;25.40;99.90;;;;;;6270073;22;20479;-70
2023/10/04 11:00:12;;;;;;;5.60;0.60;;;26.70;99.90;;;;;;6270180;22;21210;-69
2023/10/04 11:02:38;;;;;;;5.50;1.10;;;26.20;99.90;;;;;;6242266;22;20373;-70
2023/10/04 11:05:06;;;;;;;5.20;0.88;;;26.10;99.90;;;;;;6241447;22;20402;-69
2023/10/04 11:07:33;;;;;;;6.93;0.70;;;25.10;99.90;;;;;;6242405;22;20459;-69
2023/10/04 11:09:59;;;;;;;7.70;0.87;;;25.50;99.90;;;;;;6269140;22;20872;-69
2023/10/04 11:12:25;;;;;;;6.10;1.00;;;25.80;99.90;;;;;;6269830;22;20384;-68
2023/10/04 11:14:52;;;;;;;5.70;1.10;;;25.90;99.90;;;;;;6269714;22;20406;-69
2023/10/04 11:17:20;;;;;;;6.90;0.90;;;26.00;99.90;;;;;;6271363;22;20414;-69
2023/10/04 11:19:46;;;;;;;7.80;1.42;;;25.10;99.90;;;;;;6271802;22;20356;-69
2023/10/04 11:22:14;;;;;;;5.00;0.80;;;24.50;99.90;;;;;;6244470;22;20463;-69
2023/10/04 11:24:39;;;;;;;4.60;0.70;;;24.20;99.90;;;;;;6271498;22;20367;-69
2023/10/04 11:27:07;;;;;;;5.85;0.70;;;23.70;99.90;;;;;;6271624;22;20705;-69
2023/10/04 11:29:34;;;;;;;4.90;0.60;;;23.20;99.90;;;;;;6271694;22;20370;-68
2023/10/04 11:32:00;;;;;;;5.38;0.70;;;22.40;99.90;;;;;;6271809;22;20372;-68
2023/10/04 11:34:26;;;;;;;5.10;0.70;;;22.80;99.90;;;;;;6271838;22;20443;-68
2023/10/04 11:37:01;;;;;;;6.70;0.83;;;22.80;99.90;;;;;;6271508;22;20754;-69
2023/10/04 11:39:33;;;;;;;5.70;1.00;;;22.70;99.90;;;;;;6271234;22;20353;-69
2023/10/04 11:42:03;;;;;;;7.40;0.90;;;22.60;99.90;;;;;;6271751;22;20356;-68
2023/10/04 11:44:32;;;;;;;6.82;0.85;;;22.50;99.90;;;;;;6271122;22;20926;-68
2023/10/04 11:47:00;;;;;;;7.07;1.05;;;22.90;99.90;;;;;;6271103;22;20383;-68
2023/10/04 11:49:29;;;;;;;4.50;0.70;;;23.10;99.90;;;;;;6271990;22;20361;-69
2023/10/04 11:52:03;;;;;;;5.10;1.10;;;22.90;99.90;;;;;;6271994;22;20859;-69
2023/10/04 11:54:44;;;;;;;4.80;1.00;;;22.80;99.90;;;;;;6244522;22;20369;-69
2023/10/04 11:57:11;;;;;;;6.60;0.90;;;23.00;99.90;;;;;;6245176;22;20697;-69
2023/10/04 11:59:37;;;;;;;5.32;0.70;;;23.20;99.90;;;;;;6271406;22;20356;-68
2023/10/04 12:02:02;;;;;;;4.40;0.60;;;23.10;99.90;;;;;;6272053;22;20441;-69
2023/10/04 12:04:30;;;;;;;5.35;0.60;;;23.10;99.90;;;;;;6271192;22;20398;-69
2023/10/04 12:07:04;;;;;;;4.60;0.70;;;22.80;99.90;;;;;;6271525;22;20460;-70
2023/10/04 12:09:33;;;;;;;4.93;0.85;;;22.50;99.90;;;;;;6270888;22;20854;-69
2023/10/04 12:12:02;;;;;;;6.80;0.90;;;22.60;99.90;;;;;;6271659;22;20786;-68
2023/10/04 12:14:27;;;;;;;6.20;1.15;;;22.70;99.90;;;;;;6271125;22;20430;-69
2023/10/04 12:16:53;;;;;;;5.03;0.70;;;22.80;99.90;;;;;;6271676;22;20365;-69
2023/10/04 12:19:19;;;;;;;5.80;0.77;;;22.90;99.90;;;;;;6272361;22;20371;-70
2023/10/04 12:21:44;;;;;;;5.50;0.90;;;22.80;99.90;;;;;;6271192;22;20360;-70
2023/10/04 12:24:10;;;;;;;4.60;0.87;;;22.90;99.90;;;;;;6244127;22;20380;-70
2023/10/04 12:26:36;;;;;;;4.90;0.80;;;23.20;99.90;;;;;;6270880;22;20431;-69
2023/10/04 12:29:03;;;;;;;4.90;0.80;;;23.30;99.90;;;;;;6271119;22;20369;-69
2023/10/04 12:31:30;;;;;;;6.78;1.08;;;22.90;99.90;;;;;;6272116;22;20362;-71
2023/10/04 12:33:55;;;;;;;5.13;1.15;;;22.80;99.90;;;;;;6271584;22;20391;-69
2023/10/04 12:36:25;;;;;;;7.57;0.87;;;22.80;99.90;;;;;;6270576;22;20349;-70
2023/10/04 12:38:51;;;;;;;5.25;0.85;;;22.70;99.90;;;;;;6272205;22;20360;-69
2023/10/04 12:41:18;;;;;;;8.40;0.97;;;22.40;99.90;;;;;;6245085;22;20372;-70
2023/10/04 12:43:43;;;;;;;6.00;0.70;;;22.30;99.90;;;;;;6271648;22;20379;-69
2023/10/04 12:46:10;;;;;;;5.68;1.00;;;22.10;99.90;;;;;;6271492;22;20380;-69
2023/10/04 12:48:35;;;;;;;5.95;0.98;;;22.00;99.90;;;;;;6271513;22;20842;-69
2023/10/04 12:51:01;;;;;;;4.90;0.90;;;22.30;99.90;;;;;;6271093;22;20439;-70
2023/10/04 12:53:27;;;;;;;7.30;1.00;;;22.60;99.90;;;;;;6270991;22;20832;-68
2023/10/04 12:55:54;;;;;;;5.68;0.90;;;22.80;99.90;;;;;;6271908;22;20672;-68
2023/10/04 12:58:20;;;;;;;4.60;0.60;;;22.50;99.90;;;;;;6272640;22;20379;-68